sensor_id;sensor_type;location;lat;lon;timestamp;temperature;humidity
72772;SHT30;60894;42.544;1.516;2022-12-20T00:01:58;2.49;76.56
72772;SHT30;60894;42.544;1.516;2022-12-20T00:04:25;2.46;76.58
72772;SHT30;60894;42.544;1.516;2022-12-20T00:06:52;2.42;76.88
72772;SHT30;60894;42.544;1.516;2022-12-20T00:09:20;2.41;76.66
72772;SHT30;60894;42.544;1.516;2022-12-20T00:11:47;2.41;75.87
72772;SHT30;60894;42.544;1.516;2022-12-20T00:14:14;2.42;76.28
72772;SHT30;60894;42.544;1.516;2022-12-20T00:16:42;2.46;75.87
72772;SHT30;60894;42.544;1.516;2022-12-20T00:19:10;2.35;75.66
72772;SHT30;60894;42.544;1.516;2022-12-20T00:21:37;2.30;75.59
72772;SHT30;60894;42.544;1.516;2022-12-20T00:24:05;2.28;75.53
72772;SHT30;60894;42.544;1.516;2022-12-20T00:26:34;2.30;75.84
72772;SHT30;60894;42.544;1.516;2022-12-20T00:29:03;2.35;76.36
72772;SHT30;60894;42.544;1.516;2022-12-20T00:31:31;2.30;75.61
72772;SHT30;60894;42.544;1.516;2022-12-20T00:34:00;2.28;75.61
72772;SHT30;60894;42.544;1.516;2022-12-20T00:36:29;2.32;75.45
72772;SHT30;60894;42.544;1.516;2022-12-20T00:38:58;2.30;75.49
72772;SHT30;60894;42.544;1.516;2022-12-20T00:41:27;2.25;75.60
72772;SHT30;60894;42.544;1.516;2022-12-20T00:43:55;2.27;76.02
72772;SHT30;60894;42.544;1.516;2022-12-20T00:46:22;2.24;75.82
72772;SHT30;60894;42.544;1.516;2022-12-20T00:48:49;2.27;76.05
72772;SHT30;60894;42.544;1.516;2022-12-20T00:51:20;2.24;76.07
72772;SHT30;60894;42.544;1.516;2022-12-20T00:53:48;2.31;75.60
72772;SHT30;60894;42.544;1.516;2022-12-20T00:56:15;2.37;75.33
72772;SHT30;60894;42.544;1.516;2022-12-20T00:58:42;2.31;75.05
72772;SHT30;60894;42.544;1.516;2022-12-20T01:01:20;2.35;75.06
72772;SHT30;60894;42.544;1.516;2022-12-20T01:03:47;2.31;75.20
72772;SHT30;60894;42.544;1.516;2022-12-20T01:06:14;2.31;75.52
72772;SHT30;60894;42.544;1.516;2022-12-20T01:08:43;2.34;75.34
72772;SHT30;60894;42.544;1.516;2022-12-20T01:11:13;2.30;74.85
72772;SHT30;60894;42.544;1.516;2022-12-20T01:13:42;2.24;74.80
72772;SHT30;60894;42.544;1.516;2022-12-20T01:16:17;2.18;74.71
72772;SHT30;60894;42.544;1.516;2022-12-20T01:18:44;2.09;75.00
72772;SHT30;60894;42.544;1.516;2022-12-20T01:21:12;2.14;74.89
72772;SHT30;60894;42.544;1.516;2022-12-20T01:23:40;2.07;75.03
72772;SHT30;60894;42.544;1.516;2022-12-20T01:26:11;2.04;75.51
72772;SHT30;60894;42.544;1.516;2022-12-20T01:28:40;2.00;74.62
72772;SHT30;60894;42.544;1.516;2022-12-20T01:31:09;2.00;74.74
72772;SHT30;60894;42.544;1.516;2022-12-20T01:33:37;2.04;74.39
72772;SHT30;60894;42.544;1.516;2022-12-20T01:36:06;2.11;74.54
72772;SHT30;60894;42.544;1.516;2022-12-20T01:38:34;2.21;73.67
72772;SHT30;60894;42.544;1.516;2022-12-20T01:41:02;2.20;73.41
72772;SHT30;60894;42.544;1.516;2022-12-20T01:43:47;2.20;73.45
72772;SHT30;60894;42.544;1.516;2022-12-20T01:46:15;2.15;73.57
72772;SHT30;60894;42.544;1.516;2022-12-20T01:48:44;2.01;74.15
72772;SHT30;60894;42.544;1.516;2022-12-20T01:51:12;2.03;74.23
72772;SHT30;60894;42.544;1.516;2022-12-20T01:53:39;1.99;74.25
72772;SHT30;60894;42.544;1.516;2022-12-20T01:56:07;2.04;74.47
72772;SHT30;60894;42.544;1.516;2022-12-20T01:58:37;1.97;74.88
72772;SHT30;60894;42.544;1.516;2022-12-20T02:01:06;1.97;75.12
72772;SHT30;60894;42.544;1.516;2022-12-20T02:03:33;2.01;74.78
72772;SHT30;60894;42.544;1.516;2022-12-20T02:06:13;2.10;74.40
72772;SHT30;60894;42.544;1.516;2022-12-20T02:08:41;2.15;73.73
72772;SHT30;60894;42.544;1.516;2022-12-20T02:11:18;2.11;73.82
72772;SHT30;60894;42.544;1.516;2022-12-20T02:13:53;2.01;74.05
72772;SHT30;60894;42.544;1.516;2022-12-20T02:16:27;1.94;74.34
72772;SHT30;60894;42.544;1.516;2022-12-20T02:19:00;2.00;73.89
72772;SHT30;60894;42.544;1.516;2022-12-20T02:21:34;2.00;72.78
72772;SHT30;60894;42.544;1.516;2022-12-20T02:24:40;1.99;73.26
72772;SHT30;60894;42.544;1.516;2022-12-20T02:27:34;1.99;73.60
72772;SHT30;60894;42.544;1.516;2022-12-20T02:30:08;1.97;73.41
72772;SHT30;60894;42.544;1.516;2022-12-20T02:32:38;1.97;73.45
72772;SHT30;60894;42.544;1.516;2022-12-20T02:35:08;1.90;74.88
72772;SHT30;60894;42.544;1.516;2022-12-20T02:37:36;1.86;74.11
72772;SHT30;60894;42.544;1.516;2022-12-20T02:40:04;1.84;75.38
72772;SHT30;60894;42.544;1.516;2022-12-20T02:42:32;1.90;74.85
72772;SHT30;60894;42.544;1.516;2022-12-20T02:45:04;1.94;73.52
72772;SHT30;60894;42.544;1.516;2022-12-20T02:47:46;1.89;73.87
72772;SHT30;60894;42.544;1.516;2022-12-20T02:50:17;1.73;74.91
72772;SHT30;60894;42.544;1.516;2022-12-20T02:52:45;1.70;74.66
72772;SHT30;60894;42.544;1.516;2022-12-20T02:55:13;1.70;74.49
72772;SHT30;60894;42.544;1.516;2022-12-20T02:57:44;1.69;74.50
72772;SHT30;60894;42.544;1.516;2022-12-20T03:00:14;1.76;73.93
72772;SHT30;60894;42.544;1.516;2022-12-20T03:02:44;1.80;73.86
72772;SHT30;60894;42.544;1.516;2022-12-20T03:05:29;1.87;72.90
72772;SHT30;60894;42.544;1.516;2022-12-20T03:07:57;1.79;73.52
72772;SHT30;60894;42.544;1.516;2022-12-20T03:10:25;1.79;73.62
72772;SHT30;60894;42.544;1.516;2022-12-20T03:12:52;1.73;73.53
72772;SHT30;60894;42.544;1.516;2022-12-20T03:15:19;1.74;73.54
72772;SHT30;60894;42.544;1.516;2022-12-20T03:17:47;1.79;73.28
72772;SHT30;60894;42.544;1.516;2022-12-20T03:20:14;1.74;73.16
72772;SHT30;60894;42.544;1.516;2022-12-20T03:22:41;1.79;73.23
72772;SHT30;60894;42.544;1.516;2022-12-20T03:25:08;1.76;73.03
72772;SHT30;60894;42.544;1.516;2022-12-20T03:27:35;1.74;73.28
72772;SHT30;60894;42.544;1.516;2022-12-20T03:30:03;1.80;73.40
72772;SHT30;60894;42.544;1.516;2022-12-20T03:32:30;1.86;73.62
72772;SHT30;60894;42.544;1.516;2022-12-20T03:34:59;1.80;73.06
72772;SHT30;60894;42.544;1.516;2022-12-20T03:37:26;1.80;73.14
72772;SHT30;60894;42.544;1.516;2022-12-20T03:39:53;1.77;73.20
72772;SHT30;60894;42.544;1.516;2022-12-20T03:42:20;1.74;73.51
72772;SHT30;60894;42.544;1.516;2022-12-20T03:44:47;1.66;73.54
72772;SHT30;60894;42.544;1.516;2022-12-20T03:47:14;1.69;73.56
72772;SHT30;60894;42.544;1.516;2022-12-20T03:49:41;1.66;73.46
72772;SHT30;60894;42.544;1.516;2022-12-20T03:52:11;1.64;73.89
72772;SHT30;60894;42.544;1.516;2022-12-20T03:54:39;1.60;73.66
72772;SHT30;60894;42.544;1.516;2022-12-20T03:57:06;1.66;73.23
72772;SHT30;60894;42.544;1.516;2022-12-20T03:59:33;1.70;73.19
72772;SHT30;60894;42.544;1.516;2022-12-20T04:02:01;1.62;73.26
72772;SHT30;60894;42.544;1.516;2022-12-20T04:04:28;1.64;73.14
72772;SHT30;60894;42.544;1.516;2022-12-20T04:06:55;1.69;71.98
72772;SHT30;60894;42.544;1.516;2022-12-20T04:09:24;1.76;72.62
72772;SHT30;60894;42.544;1.516;2022-12-20T04:11:51;1.69;73.10
72772;SHT30;60894;42.544;1.516;2022-12-20T04:14:18;1.66;73.27
72772;SHT30;60894;42.544;1.516;2022-12-20T04:16:45;1.69;73.80
72772;SHT30;60894;42.544;1.516;2022-12-20T04:19:12;1.69;73.55
72772;SHT30;60894;42.544;1.516;2022-12-20T04:21:39;1.70;72.88
72772;SHT30;60894;42.544;1.516;2022-12-20T04:24:06;1.64;74.25
72772;SHT30;60894;42.544;1.516;2022-12-20T04:26:35;1.60;73.99
72772;SHT30;60894;42.544;1.516;2022-12-20T04:29:02;1.62;73.87
72772;SHT30;60894;42.544;1.516;2022-12-20T04:31:30;1.60;73.62
72772;SHT30;60894;42.544;1.516;2022-12-20T04:33:57;1.76;72.92
72772;SHT30;60894;42.544;1.516;2022-12-20T04:36:24;1.64;73.00
72772;SHT30;60894;42.544;1.516;2022-12-20T04:38:51;1.60;72.57
72772;SHT30;60894;42.544;1.516;2022-12-20T04:41:18;1.60;73.73
72772;SHT30;60894;42.544;1.516;2022-12-20T04:43:51;1.60;72.95
72772;SHT30;60894;42.544;1.516;2022-12-20T04:46:19;1.64;73.37
72772;SHT30;60894;42.544;1.516;2022-12-20T04:48:46;1.64;71.91
72772;SHT30;60894;42.544;1.516;2022-12-20T04:51:13;1.63;72.42
72772;SHT30;60894;42.544;1.516;2022-12-20T04:53:40;1.58;73.32
72772;SHT30;60894;42.544;1.516;2022-12-20T04:56:13;1.63;72.78
72772;SHT30;60894;42.544;1.516;2022-12-20T04:58:40;1.66;72.62
72772;SHT30;60894;42.544;1.516;2022-12-20T05:01:09;1.63;72.94
72772;SHT30;60894;42.544;1.516;2022-12-20T05:03:36;1.63;73.10
72772;SHT30;60894;42.544;1.516;2022-12-20T05:06:04;1.49;73.33
72772;SHT30;60894;42.544;1.516;2022-12-20T05:08:31;1.53;73.68
72772;SHT30;60894;42.544;1.516;2022-12-20T05:10:58;1.55;73.32
72772;SHT30;60894;42.544;1.516;2022-12-20T05:13:26;1.56;73.97
72772;SHT30;60894;42.544;1.516;2022-12-20T05:15:53;1.60;74.36
72772;SHT30;60894;42.544;1.516;2022-12-20T05:18:22;1.66;74.20
72772;SHT30;60894;42.544;1.516;2022-12-20T05:20:50;1.71;73.46
72772;SHT30;60894;42.544;1.516;2022-12-20T05:23:37;1.62;73.58
72772;SHT30;60894;42.544;1.516;2022-12-20T05:26:28;1.59;73.71
72772;SHT30;60894;42.544;1.516;2022-12-20T05:28:56;1.66;73.42
72772;SHT30;60894;42.544;1.516;2022-12-20T05:31:23;1.63;73.55
72772;SHT30;60894;42.544;1.516;2022-12-20T05:33:51;1.66;73.32
72772;SHT30;60894;42.544;1.516;2022-12-20T05:36:19;1.66;72.49
72772;SHT30;60894;42.544;1.516;2022-12-20T05:38:46;1.66;72.93
72772;SHT30;60894;42.544;1.516;2022-12-20T05:41:13;1.64;73.12
72772;SHT30;60894;42.544;1.516;2022-12-20T05:43:40;1.55;73.07
72772;SHT30;60894;42.544;1.516;2022-12-20T05:46:07;1.50;73.22
72772;SHT30;60894;42.544;1.516;2022-12-20T05:48:35;1.48;73.62
72772;SHT30;60894;42.544;1.516;2022-12-20T05:51:03;1.52;73.96
72772;SHT30;60894;42.544;1.516;2022-12-20T05:53:30;1.56;74.18
72772;SHT30;60894;42.544;1.516;2022-12-20T05:55:58;1.55;73.71
72772;SHT30;60894;42.544;1.516;2022-12-20T05:58:25;1.60;73.41
72772;SHT30;60894;42.544;1.516;2022-12-20T06:00:53;1.67;73.25
72772;SHT30;60894;42.544;1.516;2022-12-20T06:03:20;1.66;73.57
72772;SHT30;60894;42.544;1.516;2022-12-20T06:05:47;1.66;72.48
72772;SHT30;60894;42.544;1.516;2022-12-20T06:08:16;1.66;73.20
72772;SHT30;60894;42.544;1.516;2022-12-20T06:10:43;1.67;72.96
72772;SHT30;60894;42.544;1.516;2022-12-20T06:13:11;1.67;73.06
72772;SHT30;60894;42.544;1.516;2022-12-20T06:15:38;1.63;73.57
72772;SHT30;60894;42.544;1.516;2022-12-20T06:18:05;1.62;74.12
72772;SHT30;60894;42.544;1.516;2022-12-20T06:20:33;1.63;74.04
72772;SHT30;60894;42.544;1.516;2022-12-20T06:23:00;1.76;73.12
72772;SHT30;60894;42.544;1.516;2022-12-20T06:25:28;1.67;73.53
72772;SHT30;60894;42.544;1.516;2022-12-20T06:27:55;1.62;74.23
72772;SHT30;60894;42.544;1.516;2022-12-20T06:30:23;1.67;74.23
72772;SHT30;60894;42.544;1.516;2022-12-20T06:32:50;1.67;74.42
72772;SHT30;60894;42.544;1.516;2022-12-20T06:35:17;1.74;74.38
72772;SHT30;60894;42.544;1.516;2022-12-20T06:37:44;1.59;73.91
72772;SHT30;60894;42.544;1.516;2022-12-20T06:40:12;1.66;73.49
72772;SHT30;60894;42.544;1.516;2022-12-20T06:42:41;1.62;73.35
72772;SHT30;60894;42.544;1.516;2022-12-20T06:45:08;1.58;73.01
72772;SHT30;60894;42.544;1.516;2022-12-20T06:47:35;1.58;73.26
72772;SHT30;60894;42.544;1.516;2022-12-20T06:50:04;1.55;73.46
72772;SHT30;60894;42.544;1.516;2022-12-20T06:52:31;1.49;74.08
72772;SHT30;60894;42.544;1.516;2022-12-20T06:54:58;1.52;74.24
72772;SHT30;60894;42.544;1.516;2022-12-20T06:57:25;1.50;74.20
72772;SHT30;60894;42.544;1.516;2022-12-20T06:59:54;1.60;73.66
72772;SHT30;60894;42.544;1.516;2022-12-20T07:02:21;1.62;73.08
72772;SHT30;60894;42.544;1.516;2022-12-20T07:04:48;1.62;73.24
72772;SHT30;60894;42.544;1.516;2022-12-20T07:07:15;1.59;73.68
72772;SHT30;60894;42.544;1.516;2022-12-20T07:09:42;1.64;73.52
72772;SHT30;60894;42.544;1.516;2022-12-20T07:12:10;1.64;73.57
72772;SHT30;60894;42.544;1.516;2022-12-20T07:14:37;1.62;73.23
72772;SHT30;60894;42.544;1.516;2022-12-20T07:17:05;1.59;73.46
72772;SHT30;60894;42.544;1.516;2022-12-20T07:19:33;1.67;73.30
72772;SHT30;60894;42.544;1.516;2022-12-20T07:22:01;1.74;73.16
72772;SHT30;60894;42.544;1.516;2022-12-20T07:24:28;1.66;73.69
72772;SHT30;60894;42.544;1.516;2022-12-20T07:26:55;1.64;73.78
72772;SHT30;60894;42.544;1.516;2022-12-20T07:29:22;1.64;73.90
72772;SHT30;60894;42.544;1.516;2022-12-20T07:31:50;1.63;74.00
72772;SHT30;60894;42.544;1.516;2022-12-20T07:34:18;1.62;73.82
72772;SHT30;60894;42.544;1.516;2022-12-20T07:36:46;1.62;73.78
72772;SHT30;60894;42.544;1.516;2022-12-20T07:39:13;1.71;73.80
72772;SHT30;60894;42.544;1.516;2022-12-20T07:41:40;1.77;73.09
72772;SHT30;60894;42.544;1.516;2022-12-20T07:44:09;1.76;73.50
72772;SHT30;60894;42.544;1.516;2022-12-20T07:46:36;1.73;73.82
72772;SHT30;60894;42.544;1.516;2022-12-20T07:49:04;1.74;74.39
72772;SHT30;60894;42.544;1.516;2022-12-20T07:51:35;1.81;74.60
72772;SHT30;60894;42.544;1.516;2022-12-20T07:54:05;1.83;74.53
72772;SHT30;60894;42.544;1.516;2022-12-20T07:56:37;1.87;74.13
72772;SHT30;60894;42.544;1.516;2022-12-20T07:59:06;1.84;73.93
72772;SHT30;60894;42.544;1.516;2022-12-20T08:01:35;1.83;74.31
72772;SHT30;60894;42.544;1.516;2022-12-20T08:04:07;1.87;74.06
72772;SHT30;60894;42.544;1.516;2022-12-20T08:06:37;1.91;74.70
72772;SHT30;60894;42.544;1.516;2022-12-20T08:09:05;2.01;75.31
72772;SHT30;60894;42.544;1.516;2022-12-20T08:11:34;2.09;74.79
72772;SHT30;60894;42.544;1.516;2022-12-20T08:14:03;2.28;74.29
72772;SHT30;60894;42.544;1.516;2022-12-20T08:16:33;2.21;74.63
72772;SHT30;60894;42.544;1.516;2022-12-20T08:19:00;2.17;74.93
72772;SHT30;60894;42.544;1.516;2022-12-20T08:21:27;2.21;74.31
72772;SHT30;60894;42.544;1.516;2022-12-20T08:23:56;2.22;73.17
72772;SHT30;60894;42.544;1.516;2022-12-20T08:26:23;2.28;73.35
72772;SHT30;60894;42.544;1.516;2022-12-20T08:28:50;2.31;73.51
72772;SHT30;60894;42.544;1.516;2022-12-20T08:31:17;2.38;73.05
72772;SHT30;60894;42.544;1.516;2022-12-20T08:33:44;2.42;73.21
72772;SHT30;60894;42.544;1.516;2022-12-20T08:36:12;2.42;73.47
72772;SHT30;60894;42.544;1.516;2022-12-20T08:38:40;2.42;73.27
72772;SHT30;60894;42.544;1.516;2022-12-20T08:41:10;2.49;73.39
72772;SHT30;60894;42.544;1.516;2022-12-20T08:43:38;2.52;73.59
72772;SHT30;60894;42.544;1.516;2022-12-20T08:46:05;2.65;73.55
72772;SHT30;60894;42.544;1.516;2022-12-20T08:48:33;2.72;73.47
72772;SHT30;60894;42.544;1.516;2022-12-20T08:51:02;2.75;72.92
72772;SHT30;60894;42.544;1.516;2022-12-20T08:53:30;2.86;72.19
72772;SHT30;60894;42.544;1.516;2022-12-20T08:56:03;3.03;71.76
72772;SHT30;60894;42.544;1.516;2022-12-20T08:58:32;3.12;71.69
72772;SHT30;60894;42.544;1.516;2022-12-20T09:01:00;3.23;70.98
72772;SHT30;60894;42.544;1.516;2022-12-20T09:03:30;3.31;71.50
72772;SHT30;60894;42.544;1.516;2022-12-20T09:05:58;3.50;71.24
72772;SHT30;60894;42.544;1.516;2022-12-20T09:08:25;3.61;69.75
72772;SHT30;60894;42.544;1.516;2022-12-20T09:10:52;3.67;70.39
72772;SHT30;60894;42.544;1.516;2022-12-20T09:13:19;3.81;70.52
72772;SHT30;60894;42.544;1.516;2022-12-20T09:15:48;4.01;69.44
72772;SHT30;60894;42.544;1.516;2022-12-20T09:18:15;4.20;69.64
72772;SHT30;60894;42.544;1.516;2022-12-20T09:20:43;4.26;68.80
72772;SHT30;60894;42.544;1.516;2022-12-20T09:23:10;4.50;68.29
72772;SHT30;60894;42.544;1.516;2022-12-20T09:25:38;4.80;67.83
72772;SHT30;60894;42.544;1.516;2022-12-20T09:28:05;4.98;66.94
72772;SHT30;60894;42.544;1.516;2022-12-20T09:30:32;5.14;67.00
72772;SHT30;60894;42.544;1.516;2022-12-20T09:33:00;5.34;65.60
72772;SHT30;60894;42.544;1.516;2022-12-20T09:35:27;5.45;64.55
72772;SHT30;60894;42.544;1.516;2022-12-20T09:37:55;5.50;64.06
72772;SHT30;60894;42.544;1.516;2022-12-20T09:40:25;5.76;64.56
72772;SHT30;60894;42.544;1.516;2022-12-20T09:42:52;6.11;63.97
72772;SHT30;60894;42.544;1.516;2022-12-20T09:45:24;6.28;62.23
72772;SHT30;60894;42.544;1.516;2022-12-20T09:47:52;6.46;62.70
72772;SHT30;60894;42.544;1.516;2022-12-20T09:50:31;6.65;61.75
72772;SHT30;60894;42.544;1.516;2022-12-20T09:53:13;6.78;61.63
72772;SHT30;60894;42.544;1.516;2022-12-20T09:55:47;7.09;61.24
72772;SHT30;60894;42.544;1.516;2022-12-20T09:58:29;7.38;60.12
72772;SHT30;60894;42.544;1.516;2022-12-20T10:00:57;7.55;58.46
72772;SHT30;60894;42.544;1.516;2022-12-20T10:03:27;7.74;57.70
72772;SHT30;60894;42.544;1.516;2022-12-20T10:05:57;8.02;56.68
72772;SHT30;60894;42.544;1.516;2022-12-20T10:08:43;8.33;55.85
72772;SHT30;60894;42.544;1.516;2022-12-20T10:11:27;8.46;54.70
72772;SHT30;60894;42.544;1.516;2022-12-20T10:14:02;8.60;54.70
72772;SHT30;60894;42.544;1.516;2022-12-20T10:16:41;8.92;54.64
72772;SHT30;60894;42.544;1.516;2022-12-20T10:22:13;8.98;53.79
72772;SHT30;60894;42.544;1.516;2022-12-20T10:24:47;9.04;52.81
72772;SHT30;60894;42.544;1.516;2022-12-20T10:27:18;9.02;53.38
72772;SHT30;60894;42.544;1.516;2022-12-20T10:29:47;9.01;53.60
72772;SHT30;60894;42.544;1.516;2022-12-20T10:32:17;9.35;53.51
72772;SHT30;60894;42.544;1.516;2022-12-20T10:34:51;9.60;51.88
72772;SHT30;60894;42.544;1.516;2022-12-20T10:37:20;9.77;51.06
72772;SHT30;60894;42.544;1.516;2022-12-20T10:39:49;10.07;51.85
72772;SHT30;60894;42.544;1.516;2022-12-20T10:42:25;10.07;50.45
72772;SHT30;60894;42.544;1.516;2022-12-20T10:47:27;9.73;50.99
72772;SHT30;60894;42.544;1.516;2022-12-20T10:50:07;9.87;49.87
72772;SHT30;60894;42.544;1.516;2022-12-20T10:52:36;10.08;50.27
72772;SHT30;60894;42.544;1.516;2022-12-20T10:55:33;10.25;49.10
72772;SHT30;60894;42.544;1.516;2022-12-20T11:00:30;10.20;47.93
72772;SHT30;60894;42.544;1.516;2022-12-20T11:03:12;10.59;47.61
72772;SHT30;60894;42.544;1.516;2022-12-20T11:05:40;10.86;47.20
72772;SHT30;60894;42.544;1.516;2022-12-20T11:08:20;10.86;44.78
72772;SHT30;60894;42.544;1.516;2022-12-20T11:10:49;10.86;44.95
72772;SHT30;60894;42.544;1.516;2022-12-20T11:13:22;10.96;45.36
72772;SHT30;60894;42.544;1.516;2022-12-20T11:15:51;11.16;45.23
72772;SHT30;60894;42.544;1.516;2022-12-20T11:18:29;11.30;45.32
72772;SHT30;60894;42.544;1.516;2022-12-20T11:21:11;11.51;43.98
72772;SHT30;60894;42.544;1.516;2022-12-20T11:23:44;11.50;43.61
72772;SHT30;60894;42.544;1.516;2022-12-20T11:26:25;11.55;44.04
72772;SHT30;60894;42.544;1.516;2022-12-20T11:29:06;12.05;43.63
72772;SHT30;60894;42.544;1.516;2022-12-20T11:31:45;11.53;41.57
72772;SHT30;60894;42.544;1.516;2022-12-20T11:34:22;11.06;43.33
72772;SHT30;60894;42.544;1.516;2022-12-20T11:37:07;11.23;43.78
72772;SHT30;60894;42.544;1.516;2022-12-20T11:42:40;11.14;43.35
72772;SHT30;60894;42.544;1.516;2022-12-20T11:48:03;11.31;42.79
72772;SHT30;60894;42.544;1.516;2022-12-20T11:50:44;11.33;43.17
72772;SHT30;60894;42.544;1.516;2022-12-20T11:53:17;11.88;42.86
72772;SHT30;60894;42.544;1.516;2022-12-20T11:55:48;12.21;41.81
72772;SHT30;60894;42.544;1.516;2022-12-20T11:58:22;12.56;42.38
72772;SHT30;60894;42.544;1.516;2022-12-20T12:00:54;12.77;41.65
72772;SHT30;60894;42.544;1.516;2022-12-20T12:03:28;12.94;40.52
72772;SHT30;60894;42.544;1.516;2022-12-20T12:05:59;12.60;40.50
72772;SHT30;60894;42.544;1.516;2022-12-20T12:08:33;12.81;40.71
72772;SHT30;60894;42.544;1.516;2022-12-20T12:11:05;12.83;40.11
72772;SHT30;60894;42.544;1.516;2022-12-20T12:13:35;12.68;39.92
72772;SHT30;60894;42.544;1.516;2022-12-20T12:16:08;12.57;39.32
72772;SHT30;60894;42.544;1.516;2022-12-20T12:18:37;12.23;40.50
72772;SHT30;60894;42.544;1.516;2022-12-20T12:21:09;11.40;41.32
72772;SHT30;60894;42.544;1.516;2022-12-20T12:23:46;10.91;42.46
72772;SHT30;60894;42.544;1.516;2022-12-20T12:26:19;10.61;42.88
72772;SHT30;60894;42.544;1.516;2022-12-20T12:28:50;10.44;42.66
72772;SHT30;60894;42.544;1.516;2022-12-20T12:31:22;10.42;43.41
72772;SHT30;60894;42.544;1.516;2022-12-20T12:34:03;10.82;42.54
72772;SHT30;60894;42.544;1.516;2022-12-20T12:36:46;11.04;42.58
72772;SHT30;60894;42.544;1.516;2022-12-20T12:39:40;11.35;41.61
72772;SHT30;60894;42.544;1.516;2022-12-20T12:42:22;11.78;40.95
72772;SHT30;60894;42.544;1.516;2022-12-20T12:44:57;11.85;40.45
72772;SHT30;60894;42.544;1.516;2022-12-20T12:47:35;12.02;39.43
72772;SHT30;60894;42.544;1.516;2022-12-20T12:50:08;12.25;39.70
72772;SHT30;60894;42.544;1.516;2022-12-20T12:52:44;12.30;38.78
72772;SHT30;60894;42.544;1.516;2022-12-20T12:55:38;12.43;37.49
72772;SHT30;60894;42.544;1.516;2022-12-20T12:58:29;12.76;38.69
72772;SHT30;60894;42.544;1.516;2022-12-20T13:00:57;12.84;38.22
72772;SHT30;60894;42.544;1.516;2022-12-20T13:03:39;12.73;39.34
72772;SHT30;60894;42.544;1.516;2022-12-20T13:09:22;13.15;36.98
72772;SHT30;60894;42.544;1.516;2022-12-20T13:18:26;12.97;37.44
72772;SHT30;60894;42.544;1.516;2022-12-20T13:21:16;12.98;38.30
72772;SHT30;60894;42.544;1.516;2022-12-20T13:23:43;13.32;35.20
72772;SHT30;60894;42.544;1.516;2022-12-20T13:26:48;13.32;34.95
72772;SHT30;60894;42.544;1.516;2022-12-20T13:29:23;13.56;33.95
72772;SHT30;60894;42.544;1.516;2022-12-20T13:31:50;13.55;35.00
72772;SHT30;60894;42.544;1.516;2022-12-20T13:34:51;13.80;34.82
72772;SHT30;60894;42.544;1.516;2022-12-20T13:37:27;13.69;35.34
72772;SHT30;60894;42.544;1.516;2022-12-20T13:39:54;13.87;34.22
72772;SHT30;60894;42.544;1.516;2022-12-20T13:42:31;13.91;34.43
72772;SHT30;60894;42.544;1.516;2022-12-20T13:45:03;14.05;33.80
72772;SHT30;60894;42.544;1.516;2022-12-20T13:47:37;14.42;31.15
72772;SHT30;60894;42.544;1.516;2022-12-20T13:50:26;14.61;32.48
72772;SHT30;60894;42.544;1.516;2022-12-20T13:52:55;14.67;30.39
72772;SHT30;60894;42.544;1.516;2022-12-20T13:55:30;15.06;31.59
72772;SHT30;60894;42.544;1.516;2022-12-20T13:58:03;14.77;31.66
72772;SHT30;60894;42.544;1.516;2022-12-20T14:00:31;14.71;32.72
72772;SHT30;60894;42.544;1.516;2022-12-20T14:02:59;14.55;31.90
72772;SHT30;60894;42.544;1.516;2022-12-20T14:05:33;14.77;33.60
72772;SHT30;60894;42.544;1.516;2022-12-20T14:08:04;14.61;31.12
72772;SHT30;60894;42.544;1.516;2022-12-20T14:10:34;14.82;30.69
72772;SHT30;60894;42.544;1.516;2022-12-20T14:13:01;14.23;33.40
72772;SHT30;60894;42.544;1.516;2022-12-20T14:15:30;14.30;32.49
72772;SHT30;60894;42.544;1.516;2022-12-20T14:18:04;14.02;33.61
72772;SHT30;60894;42.544;1.516;2022-12-20T14:20:34;13.70;35.62
72772;SHT30;60894;42.544;1.516;2022-12-20T14:23:03;13.15;34.91
72772;SHT30;60894;42.544;1.516;2022-12-20T14:25:36;13.12;34.48
72772;SHT30;60894;42.544;1.516;2022-12-20T14:28:04;12.94;36.29
72772;SHT30;60894;42.544;1.516;2022-12-20T14:30:41;12.70;37.55
72772;SHT30;60894;42.544;1.516;2022-12-20T14:33:26;12.81;34.31
72772;SHT30;60894;42.544;1.516;2022-12-20T14:35:56;12.88;35.31
72772;SHT30;60894;42.544;1.516;2022-12-20T14:38:32;12.86;34.51
72772;SHT30;60894;42.544;1.516;2022-12-20T14:40:59;12.93;34.42
72772;SHT30;60894;42.544;1.516;2022-12-20T14:43:31;12.83;35.67
72772;SHT30;60894;42.544;1.516;2022-12-20T14:46:14;12.32;39.02
72772;SHT30;60894;42.544;1.516;2022-12-20T14:48:42;12.40;35.96
72772;SHT30;60894;42.544;1.516;2022-12-20T14:51:12;12.55;35.63
72772;SHT30;60894;42.544;1.516;2022-12-20T14:53:44;12.55;35.69
72772;SHT30;60894;42.544;1.516;2022-12-20T14:56:14;12.45;36.52
72772;SHT30;60894;42.544;1.516;2022-12-20T14:58:45;12.46;36.17
72772;SHT30;60894;42.544;1.516;2022-12-20T15:01:18;12.64;35.14
72772;SHT30;60894;42.544;1.516;2022-12-20T15:03:50;12.61;35.58
72772;SHT30;60894;42.544;1.516;2022-12-20T15:06:33;12.59;35.00
72772;SHT30;60894;42.544;1.516;2022-12-20T15:09:01;12.40;36.59
72772;SHT30;60894;42.544;1.516;2022-12-20T15:11:30;12.43;35.15
72772;SHT30;60894;42.544;1.516;2022-12-20T15:13:58;12.50;35.18
72772;SHT30;60894;42.544;1.516;2022-12-20T15:16:26;12.45;35.81
72772;SHT30;60894;42.544;1.516;2022-12-20T15:18:55;12.55;34.80
72772;SHT30;60894;42.544;1.516;2022-12-20T15:21:27;12.52;35.69
72772;SHT30;60894;42.544;1.516;2022-12-20T15:23:59;12.35;36.79
72772;SHT30;60894;42.544;1.516;2022-12-20T15:26:28;12.39;35.22
72772;SHT30;60894;42.544;1.516;2022-12-20T15:28:56;12.35;36.17
72772;SHT30;60894;42.544;1.516;2022-12-20T15:31:24;12.68;34.26
72772;SHT30;60894;42.544;1.516;2022-12-20T15:33:51;12.60;35.05
72772;SHT30;60894;42.544;1.516;2022-12-20T15:36:23;12.39;36.30
72772;SHT30;60894;42.544;1.516;2022-12-20T15:38:52;12.57;34.22
72772;SHT30;60894;42.544;1.516;2022-12-20T15:41:23;12.63;34.52
72772;SHT30;60894;42.544;1.516;2022-12-20T15:43:52;12.50;35.98
72772;SHT30;60894;42.544;1.516;2022-12-20T15:46:21;12.45;35.47
72772;SHT30;60894;42.544;1.516;2022-12-20T15:48:48;12.42;35.81
72772;SHT30;60894;42.544;1.516;2022-12-20T15:51:17;12.25;36.94
72772;SHT30;60894;42.544;1.516;2022-12-20T15:53:44;12.23;36.22
72772;SHT30;60894;42.544;1.516;2022-12-20T15:56:16;12.11;36.96
72772;SHT30;60894;42.544;1.516;2022-12-20T15:58:46;12.16;36.36
72772;SHT30;60894;42.544;1.516;2022-12-20T16:01:17;12.08;37.08
72772;SHT30;60894;42.544;1.516;2022-12-20T16:03:46;12.05;37.72
72772;SHT30;60894;42.544;1.516;2022-12-20T16:06:13;11.89;38.42
72772;SHT30;60894;42.544;1.516;2022-12-20T16:08:40;11.99;37.03
72772;SHT30;60894;42.544;1.516;2022-12-20T16:11:18;11.74;38.54
72772;SHT30;60894;42.544;1.516;2022-12-20T16:13:47;11.88;37.42
72772;SHT30;60894;42.544;1.516;2022-12-20T16:16:16;11.78;38.34
72772;SHT30;60894;42.544;1.516;2022-12-20T16:18:44;11.71;39.03
72772;SHT30;60894;42.544;1.516;2022-12-20T16:21:14;11.58;38.70
72772;SHT30;60894;42.544;1.516;2022-12-20T16:23:43;11.70;38.24
72772;SHT30;60894;42.544;1.516;2022-12-20T16:26:12;11.70;37.47